Time;durP1;ratioP1;P1;durP2;ratioP2;P2;SDS_P1;SDS_P2;PMS_P1;PMS_P2;Temp;Humidity;BMP_temperature;BMP_pressure;BME280_temperature;BME280_humidity;BME280_pressure;Samples;Min_cycle;Max_cycle;Signal;HPM_P1;HPM_P2
2023/07/03 00:00:14;;;;;;;20.50;11.03;;;;;;;-141.97;94.06;47836.22;5092956;28;20674;-85
2023/07/03 00:02:40;;;;;;;20.00;11.40;;;;;;;-141.97;93.17;47607.50;5092633;28;20172;-85
2023/07/03 00:05:08;;;;;;;20.50;11.53;;;;;;;-141.97;92.96;47471.03;5092925;28;20207;-83
2023/07/03 00:07:35;;;;;;;20.67;12.43;;;;;;;-141.97;92.96;47715.13;5092999;28;20247;-85
2023/07/03 00:10:00;;;;;;;21.90;11.97;;;;;;;-141.97;93.12;47663.22;5092996;28;20160;-85
2023/07/03 00:12:26;;;;;;;21.93;11.40;;;;;;;-141.97;92.62;47582.50;5092320;28;20175;-85
2023/07/03 00:14:51;;;;;;;22.83;11.20;;;;;;;-141.97;92.65;47849.69;5092603;28;20148;-86
2023/07/03 00:17:17;;;;;;;18.70;10.70;;;;;;;-141.97;93.74;47657.47;5092267;28;20156;-85
2023/07/03 00:19:42;;;;;;;17.90;11.43;;;;;;;-141.97;93.24;47676.69;5092621;28;20225;-84
2023/07/03 00:22:07;;;;;;;21.33;11.70;;;;;;;-141.97;93.46;47565.22;5073709;28;20182;-85
2023/07/03 00:24:33;;;;;;;23.07;11.30;;;;;;;-141.97;93.53;47659.38;5092589;28;20278;-85
2023/07/03 00:26:59;;;;;;;21.53;11.77;;;;;;;-141.97;93.26;47686.31;5092382;28;20515;-85
2023/07/03 00:29:28;;;;;;;18.20;11.47;;;;;;;-141.97;93.51;47570.97;5092710;28;20168;-84
2023/07/03 00:31:54;;;;;;;21.57;11.47;;;;;;;-141.97;93.22;47767.03;5074364;28;20615;-85
2023/07/03 00:34:19;;;;;;;20.63;11.20;;;;;;;-141.97;93.29;47680.53;5074640;28;20164;-85
2023/07/03 00:36:45;;;;;;;22.13;11.90;;;;;;;-141.97;94.06;47849.69;5075236;28;20229;-85
2023/07/03 00:39:11;;;;;;;21.00;12.17;;;;;;;-141.97;94.68;47630.56;5074453;28;20172;-85
2023/07/03 00:41:37;;;;;;;21.40;12.07;;;;;;;-141.97;94.90;47582.50;5074227;28;20164;-85
2023/07/03 00:44:02;;;;;;;21.97;12.60;;;;;;;-141.97;94.96;47672.84;5074361;28;20227;-84
2023/07/03 00:46:28;;;;;;;22.67;12.67;;;;;;;-141.97;95.42;47424.91;5074951;28;20185;-84
2023/07/03 00:48:54;;;;;;;23.80;12.10;;;;;;;-141.97;95.98;47396.06;5092195;28;20225;-84
2023/07/03 00:51:19;;;;;;;18.30;11.70;;;;;;;-141.97;96.14;47461.41;5093344;28;20191;-83
2023/07/03 00:53:45;;;;;;;23.50;11.87;;;;;;;-141.97;96.34;47605.56;5095522;28;20226;-84
2023/07/03 00:56:12;;;;;;;21.70;11.50;;;;;;;-141.97;96.32;47428.75;5077002;28;20194;-85
2023/07/03 00:58:38;;;;;;;22.23;12.03;;;;;;;-141.97;96.61;47570.97;5095127;28;20171;-83
2023/07/03 01:01:24;;;;;;;24.47;12.00;;;;;;;-141.97;97.64;47680.53;5095320;28;20160;-84
2023/07/03 01:03:57;;;;;;;25.03;12.20;;;;;;;-141.97;97.48;47451.81;5078436;28;20191;-86
2023/07/03 01:06:28;;;;;;;21.13;11.87;;;;;;;-141.97;96.38;47522.91;5096548;28;20184;-85
2023/07/03 01:08:58;;;;;;;22.30;11.60;;;;;;;-141.97;96.06;47713.22;5096286;28;20160;-85
2023/07/03 01:11:24;;;;;;;17.70;10.77;;;;;;;-141.97;95.51;47538.28;5095148;28;20885;-84
2023/07/03 01:13:54;;;;;;;18.40;10.73;;;;;;;-141.97;95.19;47649.78;5095216;28;20164;-85
2023/07/03 01:16:20;;;;;;;19.00;11.07;;;;;;;-141.97;94.84;47838.16;5095221;28;20160;-85
2023/07/03 01:18:49;;;;;;;18.40;10.27;;;;;;;-141.97;94.29;47657.47;5095450;28;20182;-88
2023/07/03 01:21:22;;;;;;;18.70;11.17;;;;;;;-141.97;93.61;47517.16;5078000;28;20160;-87
2023/07/03 01:24:00;;;;;;;16.20;9.80;;;;;;;-141.97;92.24;47653.63;5095585;28;20251;-87
2023/07/03 01:26:27;;;;;;;16.30;10.20;;;;;;;-141.97;91.81;47524.84;5095784;28;20178;-87
2023/07/03 01:28:59;;;;;;;17.90;9.90;;;;;;;-141.97;91.19;47801.63;5095248;28;20172;-87
2023/07/03 01:31:26;;;;;;;15.03;9.43;;;;;;;-141.97;90.85;47686.31;5094772;28;20665;-84
2023/07/03 01:33:54;;;;;;;17.13;10.30;;;;;;;-141.97;90.60;47694.00;5077502;28;20576;-85
2023/07/03 01:36:20;;;;;;;15.67;9.50;;;;;;;-141.97;89.86;47505.63;5095456;28;20650;-85
2023/07/03 01:38:48;;;;;;;17.00;9.93;;;;;;;-141.97;89.44;47669.00;5094910;28;20196;-85
2023/07/03 01:41:16;;;;;;;15.67;9.60;;;;;;;-141.97;89.00;47559.44;5093974;28;20164;-84
2023/07/03 01:43:44;;;;;;;15.70;9.90;;;;;;;-141.97;88.83;47786.25;5076275;28;20292;-84
2023/07/03 01:46:09;;;;;;;19.10;10.30;;;;;;;-141.97;88.27;47661.31;5095500;28;20189;-85
2023/07/03 01:48:36;;;;;;;17.33;9.50;;;;;;;-141.97;87.82;47720.91;5095014;28;20543;-85
2023/07/03 01:51:03;;;;;;;18.07;9.67;;;;;;;-141.97;87.03;47653.63;5094816;28;20241;-84
2023/07/03 01:53:38;;;;;;;17.60;9.90;;;;;;;-141.97;86.58;47642.09;5094829;28;20188;-84
2023/07/03 01:56:21;;;;;;;18.60;10.50;;;;;;;-141.97;86.39;47636.31;5094993;28;20171;-84
2023/07/03 01:58:51;;;;;;;16.87;10.60;;;;;;;-141.97;85.93;47676.69;5076846;28;20238;-86
2023/07/03 02:01:37;;;;;;;18.43;10.77;;;;;;;-141.97;86.12;47655.53;5095174;28;20168;-86
2023/07/03 02:04:09;;;;;;;19.10;10.77;;;;;;;-141.97;86.65;47680.53;5080750;28;20207;-85
2023/07/03 02:06:39;;;;;;;19.83;10.57;;;;;;;-141.97;85.45;47672.84;5097960;28;20164;-86
2023/07/03 02:09:06;;;;;;;19.03;10.50;;;;;;;-141.97;85.63;47786.25;5077168;28;20168;-86
2023/07/03 02:11:32;;;;;;;19.50;10.77;;;;;;;-141.97;85.66;47799.72;5094918;28;20168;-84
2023/07/03 02:13:57;;;;;;;18.00;10.73;;;;;;;-141.97;85.42;47532.53;5076624;28;20187;-85
2023/07/03 02:16:23;;;;;;;19.43;10.53;;;;;;;-141.97;84.43;47703.59;5094726;28;20164;-87
2023/07/03 02:18:49;;;;;;;15.53;10.53;;;;;;;-141.97;84.46;47638.25;5096110;28;20232;-85
2023/07/03 02:21:15;;;;;;;15.73;10.30;;;;;;;-141.97;84.23;47678.63;5096941;28;20215;-85
2023/07/03 02:23:41;;;;;;;17.17;10.27;;;;;;;-141.97;83.77;47857.38;5080783;28;20191;-86
2023/07/03 02:26:07;;;;;;;15.97;10.40;;;;;;;-141.97;83.35;47626.72;5094528;28;20258;-85
2023/07/03 02:28:32;;;;;;;15.57;10.63;;;;;;;-141.97;83.52;47636.31;5093084;28;20164;-85
2023/07/03 02:30:58;;;;;;;18.20;10.77;;;;;;;-141.97;83.12;47790.09;5093388;28;20172;-86
2023/07/03 02:33:24;;;;;;;17.63;10.60;;;;;;;-141.97;83.15;47667.06;5093878;28;20168;-86
2023/07/03 02:35:49;;;;;;;14.83;10.43;;;;;;;-141.97;83.15;47749.72;5093981;28;20251;-86
2023/07/03 02:38:15;;;;;;;16.33;11.00;;;;;;;-141.97;83.36;47651.69;5094019;28;20259;-86
2023/07/03 02:40:41;;;;;;;18.30;11.23;;;;;;;-141.97;83.08;47613.25;5093735;28;20259;-85
2023/07/03 02:43:08;;;;;;;16.33;10.97;;;;;;;-141.97;82.68;47788.19;5092975;28;20223;-85
2023/07/03 02:45:38;;;;;;;19.27;11.27;;;;;;;-141.97;82.50;47659.38;5093789;28;20164;-85
2023/07/03 02:48:05;;;;;;;16.13;10.53;;;;;;;-141.97;82.69;47676.69;5093641;28;20220;-86
2023/07/03 02:50:31;;;;;;;19.03;11.50;;;;;;;-141.97;82.96;47572.91;5092570;28;20160;-85
2023/07/03 02:52:56;;;;;;;18.57;11.67;;;;;;;-141.97;83.03;47601.72;5074924;28;20253;-85
2023/07/03 02:55:22;;;;;;;15.93;10.70;;;;;;;-141.97;82.56;47626.72;5071354;28;20176;-84
2023/07/03 02:57:47;;;;;;;18.20;10.63;;;;;;;-141.97;82.36;47565.22;5074781;28;20205;-85
2023/07/03 03:00:13;;;;;;;16.47;10.47;;;;;;;-141.97;82.59;47528.69;5092763;28;20204;-84
2023/07/03 03:02:42;;;;;;;15.80;10.47;;;;;;;-141.97;82.50;47607.50;5094052;28;20171;-85
2023/07/03 03:05:09;;;;;;;16.47;10.53;;;;;;;-141.97;82.76;47670.91;5075287;28;20214;-85
2023/07/03 03:07:35;;;;;;;17.73;10.97;;;;;;;-141.97;82.17;47499.84;5093783;28;20166;-85
2023/07/03 03:10:00;;;;;;;16.87;10.73;;;;;;;-141.97;81.61;47695.91;5094451;28;20164;-84
2023/07/03 03:12:26;;;;;;;18.83;11.33;;;;;;;-141.97;81.31;47726.66;5094517;28;20172;-86
2023/07/03 03:14:51;;;;;;;20.00;12.97;;;;;;;-141.97;81.04;47670.91;5093446;28;20156;-85
2023/07/03 03:17:17;;;;;;;18.97;12.40;;;;;;;-141.97;81.17;47686.31;5094801;28;20175;-85
2023/07/03 03:19:42;;;;;;;19.43;13.27;;;;;;;-141.97;81.08;47659.38;5094093;28;20172;-85
2023/07/03 03:22:07;;;;;;;20.33;13.33;;;;;;;-141.97;81.02;47599.81;5093047;28;20627;-85
2023/07/03 03:24:33;;;;;;;20.83;13.00;;;;;;;-141.97;81.23;47786.25;5093478;28;20274;-85
2023/07/03 03:27:05;;;;;;;20.17;12.00;;;;;;;-141.97;81.76;47661.31;5094829;28;20632;-84
2023/07/03 03:29:30;;;;;;;24.43;13.40;;;;;;;-141.97;82.73;47553.69;5094788;28;20152;-84
2023/07/03 03:31:56;;;;;;;20.23;12.87;;;;;;;-141.97;82.66;47855.44;5093457;28;20316;-86
2023/07/03 03:34:21;;;;;;;21.13;13.17;;;;;;;-141.97;82.11;47546.00;5093896;28;20184;-85
2023/07/03 03:36:46;;;;;;;18.23;11.93;;;;;;;-141.97;82.94;47530.59;5093519;28;20271;-86
2023/07/03 03:39:12;;;;;;;18.50;11.67;;;;;;;-141.97;82.55;47647.84;5093713;28;20170;-87
2023/07/03 03:41:38;;;;;;;17.70;12.23;;;;;;;-141.97;82.13;47680.53;5075547;28;20171;-87
2023/07/03 03:44:04;;;;;;;18.60;11.90;;;;;;;-141.97;81.90;47676.69;5075477;28;20228;-86
2023/07/03 03:46:29;;;;;;;18.57;11.50;;;;;;;-141.97;82.29;47776.63;5075295;28;20190;-86
2023/07/03 03:48:54;;;;;;;21.13;12.37;;;;;;;-141.97;82.39;47496.00;5092538;28;20152;-85
2023/07/03 03:51:20;;;;;;;18.03;11.70;;;;;;;-141.97;81.68;47521.00;5074902;28;20183;-87
2023/07/03 03:53:45;;;;;;;20.63;12.73;;;;;;;-141.97;81.09;47705.53;5093367;28;20179;-85
2023/07/03 03:56:11;;;;;;;18.07;12.17;;;;;;;-141.97;80.21;47642.09;5074482;28;20183;-85
2023/07/03 03:58:36;;;;;;;20.27;13.20;;;;;;;-141.97;80.62;47665.16;5092620;28;20176;-85
2023/07/03 04:01:02;;;;;;;23.77;12.07;;;;;;;-141.97;80.27;47492.16;5092930;28;20211;-86
2023/07/03 04:03:27;;;;;;;22.03;13.43;;;;;;;-141.97;80.04;47565.22;5094029;28;20168;-86
2023/07/03 04:05:53;;;;;;;20.20;13.27;;;;;;;-141.97;79.91;47657.47;5075379;28;20244;-88
2023/07/03 04:08:18;;;;;;;20.07;12.40;;;;;;;-141.97;79.30;47807.41;5075006;28;20221;-86
2023/07/03 04:10:44;;;;;;;22.43;12.50;;;;;;;-141.97;79.46;47465.25;5093312;28;20164;-87
2023/07/03 04:13:13;;;;;;;20.47;12.40;;;;;;;-141.97;79.50;47496.00;5093105;28;20156;-86
2023/07/03 04:15:58;;;;;;;17.00;12.20;;;;;;;-141.97;78.59;47499.84;5092914;28;20161;-87
2023/07/03 04:18:24;;;;;;;20.10;12.23;;;;;;;-141.97;78.91;47540.22;5093638;28;20170;-88
2023/07/03 04:20:49;;;;;;;19.00;12.90;;;;;;;-141.97;78.22;47793.94;5075184;28;20199;-87
2023/07/03 04:23:16;;;;;;;18.97;13.87;;;;;;;-141.97;77.85;47546.00;5093283;28;20198;-87
2023/07/03 04:25:42;;;;;;;20.60;14.30;;;;;;;-141.97;77.12;47549.84;5075911;28;20644;-87
2023/07/03 04:28:09;;;;;;;22.70;14.47;;;;;;;-141.97;75.98;47503.69;5097154;28;20263;-87
2023/07/03 04:30:34;;;;;;;20.00;13.50;;;;;;;-141.97;75.84;47845.84;5112828;28;20179;-87
2023/07/03 04:33:00;;;;;;;24.53;15.50;;;;;;;-141.97;75.72;47655.53;5096820;28;20172;-87
2023/07/03 04:35:25;;;;;;;23.33;15.97;;;;;;;-141.97;74.98;47834.31;5078516;28;20207;-87
2023/07/03 04:37:51;;;;;;;23.07;16.07;;;;;;;-141.97;75.26;47661.31;5097683;28;20285;-86
2023/07/03 04:40:17;;;;;;;21.40;16.07;;;;;;;-141.97;75.14;47647.84;5097698;28;20187;-87
2023/07/03 04:42:43;;;;;;;21.90;15.47;;;;;;;-141.97;75.37;47522.91;5078802;28;20560;-86
2023/07/03 04:45:10;;;;;;;21.80;15.43;;;;;;;-141.97;75.03;47478.72;5048308;28;20247;-87
2023/07/03 04:47:39;;;;;;;25.00;16.27;;;;;;;-141.97;74.94;47842.00;5075945;28;20227;-88
2023/07/03 04:50:08;;;;;;;23.60;16.97;;;;;;;-141.97;74.61;47734.34;5057898;28;20252;-87
2023/07/03 04:52:36;;;;;;;25.73;16.83;;;;;;;-141.97;74.46;47826.63;5058579;28;20172;-86
2023/07/03 04:55:02;;;;;;;23.50;16.10;;;;;;;-141.97;74.33;47472.94;5076225;28;20248;-85
2023/07/03 04:57:28;;;;;;;26.80;16.77;;;;;;;-141.97;75.02;47767.03;5076926;28;20157;-86
2023/07/03 04:59:55;;;;;;;24.27;16.83;;;;;;;-141.97;74.49;47813.16;5076587;28;20171;-87
2023/07/03 05:02:21;;;;;;;28.30;17.83;;;;;;;-141.97;73.94;47490.25;5057774;28;20169;-86
2023/07/03 05:04:47;;;;;;;24.90;18.43;;;;;;;-141.97;72.95;47595.97;5058096;28;20204;-87
2023/07/03 05:07:12;;;;;;;24.47;18.40;;;;;;;-141.97;72.93;47876.59;5076119;28;20256;-86
2023/07/03 05:09:38;;;;;;;26.73;19.10;;;;;;;-141.97;72.34;47597.88;5075046;28;20192;-86
2023/07/03 05:12:04;;;;;;;26.73;19.10;;;;;;;-141.97;72.30;47663.22;5074471;28;20176;-87
2023/07/03 05:14:29;;;;;;;25.00;19.63;;;;;;;-141.97;72.31;47661.31;5054653;28;20527;-86
2023/07/03 05:16:55;;;;;;;31.40;20.23;;;;;;;-141.97;72.55;47780.47;5069906;28;20192;-85
2023/07/03 05:19:21;;;;;;;26.17;19.90;;;;;;;-141.97;71.73;47651.69;5075128;28;20249;-84
2023/07/03 05:21:47;;;;;;;26.30;19.23;;;;;;;-141.97;71.51;47576.75;5075800;28;20184;-88
2023/07/03 05:24:13;;;;;;;27.93;20.40;;;;;;;-141.97;70.77;47615.19;5075572;28;20196;-85
2023/07/03 05:26:39;;;;;;;27.97;21.13;;;;;;;-141.97;70.64;47567.13;5075761;28;20169;-86
2023/07/03 05:29:05;;;;;;;28.57;21.27;;;;;;;-141.97;70.67;47605.56;5075144;28;20168;-86
2023/07/03 05:31:30;;;;;;;30.77;21.87;;;;;;;-141.97;70.07;47492.16;5075164;28;20159;-85
2023/07/03 05:33:56;;;;;;;27.50;20.40;;;;;;;-141.97;69.88;47407.59;5075215;28;20165;-85
2023/07/03 05:36:21;;;;;;;32.03;20.73;;;;;;;-141.97;69.89;47688.22;5074377;28;20194;-86
2023/07/03 05:38:47;;;;;;;27.37;20.53;;;;;;;-141.97;69.31;47544.06;5075453;28;20649;-86
2023/07/03 05:41:14;;;;;;;28.37;19.37;;;;;;;-141.97;69.15;47538.28;5074584;28;20172;-84
2023/07/03 05:43:39;;;;;;;27.37;20.70;;;;;;;-141.97;69.75;47715.13;5074884;28;20304;-86
2023/07/03 05:46:07;;;;;;;29.30;20.80;;;;;;;-141.97;69.53;47434.50;5066444;28;20328;-89
2023/07/03 05:48:33;;;;;;;27.33;20.00;;;;;;;-141.97;68.27;47496.00;5059539;28;20172;-89
2023/07/03 05:50:58;;;;;;;25.50;19.40;;;;;;;-141.97;68.16;47257.69;5053949;28;20191;-90
2023/07/03 05:53:27;;;;;;;28.67;19.70;;;;;;;-141.97;67.96;47620.94;5049154;28;20258;-93
2023/07/03 05:55:58;;;;;;;27.67;21.03;;;;;;;-141.97;67.71;47695.91;5048062;28;20192;-92
2023/07/03 05:58:25;;;;;;;28.57;20.80;;;;;;;-141.97;67.30;47642.09;5075535;28;20219;-93
2023/07/03 06:00:58;;;;;;;27.60;19.37;;;;;;;-141.97;67.92;47807.41;5059723;28;20177;-93
2023/07/03 06:03:28;;;;;;;29.83;20.00;;;;;;;-141.97;67.84;47286.53;5048956;28;20173;-91
2023/07/03 06:05:54;;;;;;;27.80;21.07;;;;;;;-141.97;67.49;47726.66;5056081;28;20187;-92
2023/07/03 06:08:20;;;;;;;25.73;20.50;;;;;;;-141.97;66.43;47761.25;5057310;28;20184;-93
2023/07/03 06:10:49;;;;;;;28.80;21.37;;;;;;;-141.97;66.57;47380.69;5057112;28;20172;-93
2023/07/03 06:13:15;;;;;;;27.37;20.80;;;;;;;-141.97;66.11;47830.47;5056497;28;20383;-94
2023/07/03 06:15:44;;;;;;;29.13;21.13;;;;;;;-141.97;65.84;47645.94;5067577;28;20190;-92
2023/07/03 06:18:18;;;;;;;26.97;21.17;;;;;;;-141.97;65.62;47442.19;5058953;28;20637;-92
2023/07/03 06:20:44;;;;;;;27.37;21.60;;;;;;;-141.97;65.63;47396.06;5058464;28;20160;-92
2023/07/03 06:23:09;;;;;;;27.57;20.37;;;;;;;-141.97;65.23;47768.94;5058056;28;20207;-90
2023/07/03 06:25:34;;;;;;;27.47;21.27;;;;;;;-141.97;65.41;47555.59;5069708;28;20207;-91
2023/07/03 06:28:00;;;;;;;27.40;20.93;;;;;;;-141.97;65.57;47765.09;5074820;28;20165;-91
2023/07/03 06:30:29;;;;;;;29.47;21.20;;;;;;;-141.97;64.43;47344.19;5074226;28;20226;-90
2023/07/03 06:32:54;;;;;;;28.53;21.20;;;;;;;-141.97;64.19;47330.72;5074575;28;20694;-91
2023/07/03 06:35:20;;;;;;;29.27;21.03;;;;;;;-141.97;64.48;47724.75;5072892;28;20165;-90
2023/07/03 06:37:45;;;;;;;31.27;21.30;;;;;;;-141.97;63.94;47580.59;5074739;28;20187;-90
2023/07/03 06:40:14;;;;;;;28.40;21.37;;;;;;;-141.97;63.67;47768.94;5071569;28;20177;-87
2023/07/03 08:51:33;;;;;;;17.00;13.73;;;;;;;-141.97;44.19;47230.78;5053473;28;20265;-87
2023/07/03 08:54:12;;;;;;;17.58;14.35;;;;;;;-141.97;44.60;47686.31;5036166;28;20210;-87
2023/07/03 08:56:38;;;;;;;17.02;14.25;;;;;;;-141.97;44.93;47496.00;5054003;28;20247;-87
2023/07/03 08:59:04;;;;;;;18.00;14.27;;;;;;;-141.97;45.06;47599.81;5035917;28;20211;-86
2023/07/03 09:01:29;;;;;;;18.23;14.40;;;;;;;-141.97;44.91;47480.63;5054263;28;20178;-87
2023/07/03 09:03:57;;;;;;;17.02;14.23;;;;;;;-141.97;45.05;47484.47;5053522;28;20207;-87
2023/07/03 09:06:41;;;;;;;22.13;14.63;;;;;;;-141.97;46.00;47567.13;5036132;28;20192;-87
2023/07/03 09:09:24;;;;;;;17.50;14.40;;;;;;;-141.97;44.83;47492.16;5053928;28;20253;-86
2023/07/03 09:11:59;;;;;;;17.25;14.48;;;;;;;-141.97;44.26;47438.34;5035087;28;20185;-87
2023/07/03 09:14:29;;;;;;;16.85;14.25;;;;;;;-141.97;42.91;47096.25;5053556;28;20207;-87
2023/07/03 09:16:55;;;;;;;16.83;13.60;;;;;;;-141.97;43.03;47194.28;5035504;28;20344;-87
2023/07/03 09:19:25;;;;;;;16.48;14.10;;;;;;;-141.97;43.26;47253.84;5035626;28;20236;-87
2023/07/03 09:21:55;;;;;;;17.85;14.27;;;;;;;-141.97;43.12;47451.81;5035492;28;20247;-87
2023/07/03 09:24:29;;;;;;;15.15;13.55;;;;;;;-141.97;42.71;47469.09;5035146;28;20644;-87
2023/07/03 09:27:18;;;;;;;16.45;13.80;;;;;;;-141.97;42.95;47472.94;5035458;28;20188;-86
2023/07/03 09:29:45;;;;;;;15.77;12.85;;;;;;;-141.97;43.44;47186.59;5035226;28;20188;-87
2023/07/03 09:32:31;;;;;;;17.90;14.10;;;;;;;-141.97;42.42;47480.63;5036090;28;20170;-87
2023/07/03 09:35:12;;;;;;;17.17;13.55;;;;;;;-141.97;42.10;47728.59;5034511;28;20196;-88
2023/07/03 09:37:41;;;;;;;16.70;13.88;;;;;;;-141.97;41.85;47471.03;5053306;28;20248;-87
2023/07/03 09:40:12;;;;;;;14.82;12.80;;;;;;;-141.97;40.27;47588.28;5052792;28;20296;-89
2023/07/03 09:42:40;;;;;;;15.23;11.95;;;;;;;-141.97;38.46;47732.44;5036292;28;20173;-88
2023/07/03 09:45:13;;;;;;;13.55;11.75;;;;;;;-141.97;40.08;47392.22;5035371;28;20337;-88
2023/07/03 09:47:41;;;;;;;15.02;12.13;;;;;;;-141.97;40.49;47476.78;5035748;28;20177;-89
2023/07/03 09:50:08;;;;;;;20.90;13.05;;;;;;;-141.97;41.32;47338.41;5041565;28;20196;-87
2023/07/03 09:52:44;;;;;;;14.75;12.50;;;;;;;-141.97;40.57;47213.50;5043819;28;20169;-88
2023/07/03 09:55:10;;;;;;;14.85;13.00;;;;;;;-141.97;40.22;47553.69;5061165;28;20161;-89
2023/07/03 09:57:38;;;;;;;14.88;12.70;;;;;;;-141.97;40.08;47373.00;5056248;28;20161;-87
2023/07/03 10:00:15;;;;;;;14.50;12.88;;;;;;;-141.97;40.20;47417.22;5055551;28;20169;-90
2023/07/03 10:02:44;;;;;;;14.43;12.82;;;;;;;-141.97;39.51;47313.44;5036714;28;20256;-89
2023/07/03 10:05:15;;;;;;;15.98;12.95;;;;;;;-141.97;40.40;47555.59;5044200;28;20205;-88
2023/07/03 10:07:43;;;;;;;15.20;12.77;;;;;;;-141.97;39.88;47461.41;5040319;28;20173;-85
2023/07/03 10:10:13;;;;;;;15.23;12.45;;;;;;;-141.97;39.31;47288.44;5053099;28;20173;-85
2023/07/03 10:13:12;;;;;;;14.40;12.10;;;;;;;-141.97;39.22;47463.34;5053265;28;20174;-87
2023/07/03 10:15:40;;;;;;;14.38;12.05;;;;;;;-141.97;39.09;47430.66;4971971;28;20786;-84
2023/07/03 10:18:16;;;;;;;14.73;12.65;;;;;;;-141.97;38.15;47290.38;4972269;28;20262;-87
2023/07/03 10:20:45;;;;;;;13.75;11.60;;;;;;;-141.97;38.60;47417.22;4971706;28;20231;-87
2023/07/03 10:23:17;;;;;;;13.02;11.63;;;;;;;-141.97;38.09;47223.09;4971193;28;20172;-89
2023/07/03 10:26:17;;;;;;;12.85;11.25;;;;;;;-141.97;38.98;47401.84;4955783;28;20719;-86
2023/07/03 10:28:52;;;;;;;13.23;11.57;;;;;;;-141.97;37.83;47426.81;4895689;29;20223;-88
2023/07/03 10:31:24;;;;;;;13.23;11.82;;;;;;;-141.97;38.59;47613.25;4896430;29;20185;-88
2023/07/03 10:34:01;;;;;;;14.00;11.98;;;;;;;-141.97;38.99;47419.13;4879977;29;20307;-89
2023/07/03 10:36:28;;;;;;;12.95;11.43;;;;;;;-141.97;38.89;47176.97;4896496;29;20238;-91
2023/07/03 10:39:41;;;;;;;14.13;11.32;;;;;;;-141.97;39.41;47426.81;4897596;29;20195;-90
2023/07/03 10:43:05;;;;;;;13.70;11.25;;;;;;;-141.97;38.79;47169.28;4881178;29;20217;-89
2023/07/03 10:45:35;;;;;;;13.25;11.30;;;;;;;-141.97;37.96;47426.81;4802344;29;20334;-91
2023/07/03 10:48:07;;;;;;;14.82;11.73;;;;;;;-141.97;37.83;47434.50;4807204;29;20212;-92
2023/07/03 10:50:42;;;;;;;14.68;10.88;;;;;;;-141.97;37.69;47542.16;4804659;29;20718;-89
2023/07/03 10:53:32;;;;;;;12.88;10.93;;;;;;;-141.97;37.41;47426.81;4802264;29;20283;-88
2023/07/03 10:56:23;;;;;;;11.85;10.20;;;;;;;-141.97;37.11;47226.94;4805205;29;20705;-89
2023/07/03 10:59:25;;;;;;;20.17;11.75;;;;;;;-141.97;38.23;47351.88;4820572;29;20205;-86
2023/07/03 11:02:09;;;;;;;13.05;10.75;;;;;;;-141.97;36.86;47424.91;4820439;29;20657;-86
2023/07/03 11:04:57;;;;;;;13.05;10.77;;;;;;;-141.97;36.41;47426.81;4826136;29;20234;-86
2023/07/03 11:07:31;;;;;;;11.82;10.35;;;;;;;-141.97;36.88;47419.13;4857096;29;20195;-86
2023/07/03 11:10:02;;;;;;;12.73;10.30;;;;;;;-141.97;36.44;47417.22;4841378;29;20200;-88
2023/07/03 11:12:52;;;;;;;12.50;10.30;;;;;;;-141.97;36.78;47207.72;4841480;29;20298;-88
2023/07/03 11:15:28;;;;;;;12.88;9.90;;;;;;;-141.97;36.16;47394.16;4856519;29;20198;-88
2023/07/03 11:18:28;;;;;;;12.05;9.45;;;;;;;-141.97;35.92;47346.09;4856963;29;20406;-88
2023/07/03 11:21:15;;;;;;;13.45;9.70;;;;;;;-141.97;35.31;47396.06;4863464;29;20423;-89
2023/07/03 11:23:58;;;;;;;11.80;10.18;;;;;;;-141.97;36.11;47546.00;5042122;28;20177;-88
2023/07/03 11:27:19;;;;;;;13.75;9.77;;;;;;;-141.97;36.06;47134.69;5024724;28;20189;-83
2023/07/03 11:29:45;;;;;;;13.38;10.75;;;;;;;-141.97;36.14;47284.59;5467743;22;20246;-82
2023/07/03 11:32:13;;;;;;;12.55;10.50;;;;;;;-141.97;36.05;47544.06;5005599;28;20378;-83
2023/07/03 11:34:41;;;;;;;11.13;10.00;;;;;;;-141.97;34.79;47367.25;4998146;28;20229;-85
2023/07/03 11:37:42;;;;;;;12.23;10.15;;;;;;;-141.97;34.73;47386.47;5037858;28;20272;-83
2023/07/03 11:40:32;;;;;;;11.45;9.55;;;;;;;-141.97;34.56;47365.31;5026249;28;20561;-82
2023/07/03 11:48:31;;;;;;;10.15;9.15;;;;;;;-141.97;34.26;47374.94;5035216;28;20229;-90
2023/07/03 11:50:59;;;;;;;11.07;9.77;;;;;;;-141.97;34.02;47365.31;5046178;28;20201;-90
2023/07/03 11:53:31;;;;;;;12.23;9.40;;;;;;;-141.97;33.23;47346.09;5033996;28;20487;-91
2023/07/03 11:55:57;;;;;;;12.32;9.32;;;;;;;-141.97;32.69;47584.44;5035229;28;20288;-91
2023/07/03 11:58:29;;;;;;;10.55;9.07;;;;;;;-141.97;31.99;47290.38;5034529;28;20218;-89
2023/07/03 12:01:26;;;;;;;12.05;9.77;;;;;;;-141.97;31.70;47330.72;5033875;28;20597;-89
2023/07/03 12:04:21;;;;;;;10.98;9.63;;;;;;;-141.97;30.47;47286.53;5016421;28;20274;-84
2023/07/03 12:06:47;;;;;;;11.10;9.90;;;;;;;-141.97;29.94;47230.78;5035717;28;20181;-84
2023/07/03 12:09:19;;;;;;;11.38;9.60;;;;;;;-141.97;29.07;47259.63;5029126;28;20707;-84
2023/07/03 12:11:56;;;;;;;10.90;9.02;;;;;;;-141.97;29.14;47257.69;5028766;28;20227;-84
2023/07/03 12:14:40;;;;;;;11.38;9.60;;;;;;;-141.97;29.05;47303.81;5031214;28;20197;-84
2023/07/03 12:17:18;;;;;;;9.75;8.77;;;;;;;-141.97;28.61;47273.06;5032264;28;20166;-84
2023/07/03 12:19:46;;;;;;;10.88;9.10;;;;;;;-141.97;28.40;47230.78;5026728;28;20178;-88
2023/07/03 12:22:17;;;;;;;10.60;9.32;;;;;;;-141.97;28.19;47198.09;5011993;28;20271;-85
2023/07/03 12:24:43;;;;;;;10.82;9.43;;;;;;;-141.97;27.48;47176.97;5028409;28;20208;-83
2023/07/03 12:27:08;;;;;;;10.43;9.32;;;;;;;-141.97;27.30;47146.22;5019380;28;20589;-83
2023/07/03 12:29:45;;;;;;;9.93;8.93;;;;;;;-141.97;27.37;47215.41;5020454;28;20169;-83
2023/07/03 12:32:11;;;;;;;10.45;9.45;;;;;;;-141.97;27.28;47207.72;5014645;28;20621;-82
2023/07/03 12:34:42;;;;;;;10.60;9.50;;;;;;;-141.97;28.44;47215.41;5022097;28;20189;-83
2023/07/03 12:37:14;;;;;;;12.38;9.73;;;;;;;-141.97;28.91;47238.47;5017117;28;20188;-83
2023/07/03 12:39:50;;;;;;;9.70;8.70;;;;;;;-141.97;28.83;47265.38;5030513;28;20185;-84
2023/07/03 12:42:22;;;;;;;10.60;9.40;;;;;;;-141.97;29.18;47280.75;5038632;28;20180;-84
2023/07/03 12:44:49;;;;;;;11.45;9.50;;;;;;;-141.97;29.61;47269.22;5037364;28;20308;-84
2023/07/03 12:47:17;;;;;;;12.13;9.98;;;;;;;-141.97;30.02;47299.97;5051456;28;20282;-85
2023/07/03 12:50:00;;;;;;;10.43;9.40;;;;;;;-141.97;30.39;47273.06;5045575;28;20282;-85
2023/07/03 12:52:29;;;;;;;11.63;9.65;;;;;;;-141.97;30.10;47301.91;5048813;28;20188;-85
2023/07/03 12:54:55;;;;;;;13.40;11.38;;;;;;;-141.97;30.25;47230.78;5061310;28;20173;-83
2023/07/03 12:57:22;;;;;;;10.57;9.48;;;;;;;-141.97;29.45;47263.47;5051858;28;20238;-84
2023/07/03 12:59:50;;;;;;;12.00;9.60;;;;;;;-141.97;28.85;47244.25;5061667;28;20990;-85
2023/07/03 13:02:21;;;;;;;10.27;9.27;;;;;;;-141.97;29.42;47292.28;5044602;28;20938;-86
2023/07/03 13:04:53;;;;;;;11.13;9.95;;;;;;;-141.97;29.80;47307.66;5050567;28;20196;-86
2023/07/03 13:07:19;;;;;;;11.57;9.68;;;;;;;-141.97;29.70;47269.22;5053220;28;20173;-85
2023/07/03 13:09:44;;;;;;;11.77;10.05;;;;;;;-141.97;30.37;47336.50;5035364;28;20181;-85
2023/07/03 13:12:17;;;;;;;11.20;9.60;;;;;;;-141.97;30.35;47311.50;5053719;28;20176;-85
2023/07/03 13:15:00;;;;;;;11.98;10.35;;;;;;;-141.97;31.05;47319.19;5053104;28;20169;-85
2023/07/03 13:17:30;;;;;;;12.07;9.90;;;;;;;-141.97;31.59;47311.50;5052955;28;20169;-85
2023/07/03 13:20:27;;;;;;;12.90;10.15;;;;;;;-141.97;31.79;47465.25;5053503;28;20173;-87
2023/07/03 13:22:58;;;;;;;11.13;9.55;;;;;;;-141.97;31.49;47309.59;5036710;28;20637;-85
2023/07/03 13:25:36;;;;;;;12.18;10.70;;;;;;;-141.97;30.97;47303.81;5035922;28;20200;-86
2023/07/03 13:28:05;;;;;;;12.48;10.77;;;;;;;-141.97;31.61;47305.75;5053326;28;20173;-87
2023/07/03 13:30:35;;;;;;;15.38;11.32;;;;;;;-141.97;31.68;47309.59;5055580;28;20230;-89